Wilson, Michigan
Current Conditions -  °F | °C
As of 12:15 PM on Thursday 18 Dec 2014 (Local Time) from KESC Reporting Station
Clear Clear  
Wind Chill: 20°   Ceiling: Unl
Heat Index: 27°   Visibility: 10mi
Dew Point: 12°   Wind: 6mph
Humidity: 55%   Direction: 50°NE
Pressure: 30.25"   Gusts: NA
Location:  45.71°N, 87.44°W
Report Text: KESC 181815Z AUTO 05005KT 10SM CLR M03/M11 A3025 RMK AO1
Loading
Personal Weather Stations






























Interactive Weather Map New forecast layout! Learn more

10-Day Weather Forecast

Advertisements
Track Severe Weather on mobile